createdAt,value
2022-10-20T00:01:17.478Z,100611.13
2022-10-20T00:03:45.409Z,100613.16
2022-10-20T00:06:18.503Z,100621.78
2022-10-20T00:08:46.897Z,100615.50
2022-10-20T00:11:17.958Z,100609.59
2022-10-20T00:13:49.015Z,100608.50
2022-10-20T00:16:16.630Z,100606.88
2022-10-20T00:18:44.111Z,100605.22
2022-10-20T00:21:17.176Z,100602.50
2022-10-20T00:23:44.559Z,100599.78
2022-10-20T00:26:15.518Z,100599.63
2022-10-20T00:28:43.714Z,100592.31
2022-10-20T00:31:11.411Z,100587.97
2022-10-20T00:33:38.397Z,100579.16
2022-10-20T00:36:09.235Z,100566.47
2022-10-20T00:38:36.822Z,100557.59
2022-10-20T00:41:04.871Z,100560.28
2022-10-20T00:43:52.939Z,100564.16
2022-10-20T00:46:40.435Z,100564.97
2022-10-20T00:49:22.211Z,100561.69
2022-10-20T00:51:51.243Z,100555.91
2022-10-20T00:54:26.278Z,100553.47
2022-10-20T00:56:55.224Z,100557.59
2022-10-20T00:59:26.848Z,100557.03
2022-10-20T01:01:55.030Z,100554.28
2022-10-20T01:04:22.752Z,100535.22
2022-10-20T01:06:49.730Z,100540.59
2022-10-20T01:09:16.899Z,100540.56
2022-10-20T01:11:58.968Z,100529.16
2022-10-20T01:14:47.093Z,100527.69
2022-10-20T01:17:27.254Z,100533.72
2022-10-20T01:20:00.004Z,100527.19
2022-10-20T01:22:48.187Z,100527.06
2022-10-20T01:25:23.858Z,100527.47
2022-10-20T01:28:37.749Z,100526.78
2022-10-20T01:31:25.646Z,100515.13
2022-10-20T01:34:10.300Z,100508.91
2022-10-20T01:36:47.066Z,100510.19
2022-10-20T01:39:25.782Z,100524.44
2022-10-20T01:42:11.380Z,100515.75
2022-10-20T01:44:41.406Z,100517.09
2022-10-20T01:47:10.374Z,100513.94
2022-10-20T01:49:37.753Z,100505.53
2022-10-20T01:52:05.034Z,100501.44
2022-10-20T01:54:32.028Z,100507.44
2022-10-20T01:57:29.992Z,100503.34
2022-10-20T02:00:11.067Z,100483.00
2022-10-20T02:03:26.544Z,100479.81
2022-10-20T02:06:17.790Z,100484.03
2022-10-20T02:08:53.847Z,100481.72
2022-10-20T02:11:30.960Z,100490.53
2022-10-20T02:13:58.639Z,100490.38
2022-10-20T02:16:38.779Z,100483.69
2022-10-20T02:19:09.230Z,100478.03
2022-10-20T02:21:37.174Z,100481.47
2022-10-20T02:24:08.155Z,100477.38
2022-10-20T02:26:38.227Z,100472.13
2022-10-20T02:29:18.750Z,100478.19
2022-10-20T02:31:46.534Z,100486.31
2022-10-20T02:34:14.775Z,100483.03
2022-10-20T02:36:43.547Z,100471.66
2022-10-20T02:39:11.303Z,100468.66
2022-10-20T02:41:38.746Z,100479.88
2022-10-20T02:44:05.718Z,100474.69
2022-10-20T02:46:32.641Z,100481.81
2022-10-20T02:48:59.589Z,100472.22
2022-10-20T02:51:26.473Z,100464.25
2022-10-20T02:53:54.797Z,100471.34
2022-10-20T02:56:24.431Z,100470.44
2022-10-20T02:58:54.082Z,100471.38
2022-10-20T03:01:22.484Z,100474.97
2022-10-20T03:03:49.462Z,100479.22
2022-10-20T03:06:17.122Z,100471.16
2022-10-20T03:08:44.382Z,100477.44
2022-10-20T03:11:11.388Z,100474.16
2022-10-20T03:13:38.231Z,100470.50
2022-10-20T03:16:05.330Z,100469.09
2022-10-20T03:18:32.175Z,100467.03
2022-10-20T03:20:59.023Z,100455.00
2022-10-20T03:23:25.973Z,100459.75
2022-10-20T03:25:52.874Z,100453.09
2022-10-20T03:28:19.734Z,100442.56
2022-10-20T03:30:47.138Z,100434.75
2022-10-20T03:33:14.131Z,100438.44
2022-10-20T03:35:41.106Z,100438.28
2022-10-20T03:38:08.031Z,100456.25
2022-10-20T03:40:35.138Z,100450.31
2022-10-20T03:43:02.015Z,100458.25
2022-10-20T03:45:30.304Z,100456.78
2022-10-20T03:47:57.254Z,100449.47
2022-10-20T03:50:24.230Z,100452.53
2022-10-20T03:52:52.187Z,100456.78
2022-10-20T03:55:20.179Z,100440.47
2022-10-20T03:57:47.095Z,100444.59
2022-10-20T04:00:14.352Z,100428.53
2022-10-20T04:02:46.493Z,100428.16
2022-10-20T04:05:17.199Z,100425.41
2022-10-20T04:07:44.843Z,100418.28
2022-10-20T04:10:14.093Z,100414.84
2022-10-20T04:12:41.191Z,100410.78
2022-10-20T04:15:09.410Z,100416.94
2022-10-20T04:17:36.962Z,100412.84
2022-10-20T04:20:06.166Z,100405.31
2022-10-20T04:22:33.432Z,100403.03
2022-10-20T04:25:00.558Z,100399.00
2022-10-20T04:27:28.731Z,100388.22
2022-10-20T04:29:55.727Z,100390.00
2022-10-20T04:32:22.593Z,100394.78
2022-10-20T04:34:49.468Z,100407.78
2022-10-20T04:37:16.548Z,100392.19
2022-10-20T04:39:43.505Z,100409.00
2022-10-20T04:42:10.452Z,100405.19
2022-10-20T04:44:37.365Z,100407.63
2022-10-20T04:47:04.337Z,100403.03
2022-10-20T04:49:31.221Z,100400.66
2022-10-20T04:52:00.998Z,100396.44
2022-10-20T04:54:28.842Z,100397.53
2022-10-20T04:56:56.093Z,100384.69
2022-10-20T04:59:23.215Z,100387.84
2022-10-20T05:01:50.259Z,100390.16
2022-10-20T05:04:21.296Z,100386.84
2022-10-20T05:06:49.300Z,100388.53
2022-10-20T05:09:17.064Z,100390.69
2022-10-20T05:11:44.184Z,100373.84
2022-10-20T05:14:11.319Z,100365.22
2022-10-20T05:16:38.547Z,100362.22
2022-10-20T05:19:05.599Z,100363.22
2022-10-20T05:21:32.912Z,100361.41
2022-10-20T05:24:03.251Z,100362.38
2022-10-20T05:26:35.121Z,100362.25
2022-10-20T05:29:08.459Z,100359.94
2022-10-20T05:31:42.073Z,100360.38
2022-10-20T05:34:10.162Z,100353.25
2022-10-20T05:36:37.403Z,100350.78
2022-10-20T05:39:04.810Z,100331.78
2022-10-20T05:41:37.794Z,100329.16
2022-10-20T05:44:11.255Z,100346.66
2022-10-20T05:46:41.620Z,100360.38
2022-10-20T05:49:17.406Z,100355.97
2022-10-20T05:51:46.576Z,100360.91
2022-10-20T05:54:14.416Z,100364.47
2022-10-20T05:56:41.819Z,100365.56
2022-10-20T05:59:10.768Z,100371.59
2022-10-20T06:01:50.086Z,100374.06
2022-10-20T06:04:23.534Z,100381.44
2022-10-20T06:06:52.368Z,100391.81
2022-10-20T06:09:21.285Z,100405.38
2022-10-20T06:11:49.004Z,100411.94
2022-10-20T06:14:17.404Z,100405.00
2022-10-20T06:16:44.910Z,100386.09
2022-10-20T06:19:11.915Z,100375.00
2022-10-20T06:21:39.016Z,100386.22
2022-10-20T06:24:07.057Z,100380.59
2022-10-20T06:26:38.527Z,100378.44
2022-10-20T06:29:10.464Z,100388.81
2022-10-20T06:31:49.912Z,100396.06
2022-10-20T06:34:23.489Z,100390.19
2022-10-20T06:36:51.123Z,100394.56
2022-10-20T06:39:23.403Z,100398.41
2022-10-20T06:41:53.910Z,100398.94
2022-10-20T06:44:24.109Z,100388.53
2022-10-20T06:46:54.705Z,100388.16
2022-10-20T06:49:22.129Z,100380.00
2022-10-20T06:51:49.664Z,100398.72
2022-10-20T06:54:17.079Z,100410.69
2022-10-20T06:56:44.128Z,100415.88
2022-10-20T06:59:10.994Z,100414.63
2022-10-20T07:01:39.675Z,100399.25
2022-10-20T07:04:11.038Z,100399.91
2022-10-20T07:06:41.531Z,100399.91
2022-10-20T07:09:20.861Z,100417.44
2022-10-20T07:11:52.427Z,100402.94
2022-10-20T07:14:19.930Z,100409.19
2022-10-20T07:16:46.841Z,100402.84
2022-10-20T07:19:13.897Z,100395.72
2022-10-20T07:21:45.046Z,100385.13
2022-10-20T07:24:13.316Z,100383.97
2022-10-20T07:26:41.709Z,100385.97
2022-10-20T07:29:09.867Z,100386.66
2022-10-20T07:31:44.049Z,100388.16
2022-10-20T07:34:24.473Z,100383.47
2022-10-20T07:36:53.082Z,100386.31
2022-10-20T07:39:20.175Z,100378.72
2022-10-20T07:41:48.114Z,100376.66
2022-10-20T07:44:15.988Z,100380.25
2022-10-20T07:46:42.994Z,100387.25
2022-10-20T07:51:57.204Z,100405.53
2022-10-20T07:54:24.323Z,100403.47
2022-10-20T07:56:51.447Z,100400.31
2022-10-20T07:59:19.117Z,100395.09
2022-10-20T08:01:46.733Z,100398.94
2022-10-20T08:04:13.806Z,100387.16
2022-10-20T08:06:40.688Z,100389.97
2022-10-20T08:09:08.438Z,100388.03
2022-10-20T08:11:36.034Z,100387.13
2022-10-20T08:14:03.215Z,100392.03
2022-10-20T08:16:30.574Z,100398.69
2022-10-20T08:21:41.277Z,100391.56
2022-10-20T08:24:08.617Z,100390.47
2022-10-20T08:26:35.598Z,100378.81
2022-10-20T08:29:02.790Z,100389.75
2022-10-20T08:31:29.678Z,100393.72
2022-10-20T08:33:56.882Z,100393.09
2022-10-20T08:36:23.913Z,100394.09
2022-10-20T08:38:51.012Z,100400.31
2022-10-20T08:41:43.371Z,100414.66
2022-10-20T08:44:20.708Z,100421.19
2022-10-20T08:46:47.639Z,100410.41
2022-10-20T08:49:26.123Z,100419.28
2022-10-20T08:51:53.480Z,100412.88
2022-10-20T08:54:20.495Z,100398.28
2022-10-20T08:56:48.027Z,100418.94
2022-10-20T08:59:35.503Z,100405.66
2022-10-20T09:02:13.399Z,100407.41
2022-10-20T09:04:53.017Z,100401.06
2022-10-20T09:07:36.798Z,100408.88
2022-10-20T09:10:32.635Z,100398.94
2022-10-20T09:13:00.924Z,100391.38
2022-10-20T09:15:29.058Z,100399.28
2022-10-20T09:18:02.829Z,100403.34
2022-10-20T09:20:39.888Z,100403.78
2022-10-20T09:23:35.501Z,100396.31
2022-10-20T09:25:59.524Z,100403.47
2022-10-20T09:28:34.826Z,100406.47
2022-10-20T09:31:46.888Z,100394.16
2022-10-20T09:34:40.036Z,100397.03
2022-10-20T09:37:09.888Z,100394.44
2022-10-20T09:39:56.170Z,100392.28
2022-10-20T09:42:31.885Z,100383.41
2022-10-20T09:45:12.435Z,100385.91
2022-10-20T09:47:46.336Z,100382.63
2022-10-20T09:50:34.863Z,100387.00
2022-10-20T09:53:06.079Z,100374.94
2022-10-20T09:55:37.850Z,100363.22
2022-10-20T09:58:06.081Z,100372.53
2022-10-20T10:00:47.080Z,100365.84
2022-10-20T10:03:21.588Z,100383.63
2022-10-20T10:05:59.477Z,100404.97
2022-10-20T10:08:45.209Z,100371.41
2022-10-20T10:11:18.380Z,100350.31
2022-10-20T10:13:50.852Z,100359.81
2022-10-20T10:16:21.430Z,100347.59
2022-10-20T10:19:07.074Z,100341.69
2022-10-20T10:21:52.074Z,100338.72
2022-10-20T10:24:46.022Z,100340.69
2022-10-20T10:27:32.475Z,100359.56
2022-10-20T10:30:24.287Z,100346.16
2022-10-20T10:32:51.220Z,100339.25
2022-10-20T10:35:26.999Z,100342.19
2022-10-20T10:37:55.604Z,100330.41
2022-10-20T10:40:40.535Z,100372.34
2022-10-20T10:43:38.262Z,100369.34
2022-10-20T10:46:12.367Z,100380.84
2022-10-20T10:49:04.541Z,100375.34
2022-10-20T10:51:49.583Z,100380.78
2022-10-20T10:54:46.371Z,100372.97
2022-10-20T10:57:50.550Z,100359.38
2022-10-20T11:00:36.970Z,100355.31
2022-10-20T11:03:39.040Z,100348.16
2022-10-20T11:07:01.619Z,100356.56
2022-10-20T11:09:46.284Z,100340.78
2022-10-20T11:12:44.204Z,100327.28
2022-10-20T11:15:28.850Z,100321.88
2022-10-20T11:18:20.718Z,100328.09
2022-10-20T11:21:18.531Z,100325.75
2022-10-20T11:24:12.977Z,100317.41
2022-10-20T11:26:54.426Z,100318.34
2022-10-20T11:29:45.298Z,100325.50
2022-10-20T11:32:26.856Z,100322.59
2022-10-20T11:35:44.712Z,100324.59
2022-10-20T11:38:35.126Z,100319.81
2022-10-20T11:41:39.294Z,100316.59
2022-10-20T11:44:25.431Z,100314.31
2022-10-20T11:47:00.434Z,100318.53
2022-10-20T11:49:34.738Z,100307.66
2022-10-20T11:52:45.218Z,100302.41
2022-10-20T11:55:55.035Z,100305.16
2022-10-20T11:58:52.886Z,100304.34
2022-10-20T12:01:56.239Z,100312.97
2022-10-20T12:05:04.256Z,100310.84
2022-10-20T12:07:47.912Z,100310.56
2022-10-20T12:11:08.379Z,100312.19
2022-10-20T12:13:56.202Z,100320.06
2022-10-20T12:16:54.342Z,100302.16
2022-10-20T12:19:34.462Z,100304.22
2022-10-20T12:22:13.527Z,100305.91
2022-10-20T12:24:41.594Z,100297.34
2022-10-20T12:27:11.452Z,100293.16
2022-10-20T12:29:38.343Z,100288.72
2022-10-20T12:32:29.166Z,100292.78
2022-10-20T12:35:23.345Z,100295.53
2022-10-20T12:38:02.246Z,100286.81
2022-10-20T12:40:32.182Z,100282.91
2022-10-20T12:42:59.612Z,100285.03
2022-10-20T12:45:42.899Z,100282.28
2022-10-20T12:48:21.062Z,100272.41
2022-10-20T12:50:50.117Z,100262.63
2022-10-20T12:53:29.341Z,100253.31
2022-10-20T12:56:05.026Z,100249.66
2022-10-20T12:58:38.368Z,100251.53
2022-10-20T13:01:11.953Z,100240.19
2022-10-20T13:03:49.577Z,100231.25
2022-10-20T13:06:22.639Z,100223.00
2022-10-20T13:09:07.514Z,100234.41
2022-10-20T13:11:40.959Z,100251.59
2022-10-20T13:14:26.199Z,100260.22
2022-10-20T13:17:23.201Z,100267.66
2022-10-20T13:20:01.640Z,100255.16
2022-10-20T13:22:47.358Z,100264.66
2022-10-20T13:25:34.319Z,100264.53
2022-10-20T13:28:19.286Z,100268.34
2022-10-20T13:31:14.415Z,100279.41
2022-10-20T13:34:15.560Z,100291.66
2022-10-20T13:37:11.809Z,100282.91
2022-10-20T13:40:08.344Z,100284.28
2022-10-20T13:43:06.299Z,100281.66
2022-10-20T13:46:05.652Z,100282.81
2022-10-20T13:48:41.040Z,100294.34
2022-10-20T13:51:23.110Z,100290.16
2022-10-20T13:53:55.204Z,100288.25
2022-10-20T13:56:38.292Z,100277.50
2022-10-20T14:02:03.651Z,100260.25
2022-10-20T14:04:36.891Z,100267.81
2022-10-20T14:07:15.711Z,100260.56
2022-10-20T14:09:46.608Z,100252.78
2022-10-20T14:12:22.879Z,100246.88
2022-10-20T14:14:49.952Z,100241.00
2022-10-20T14:17:23.159Z,100243.72
2022-10-20T14:19:50.586Z,100230.97
2022-10-20T14:22:23.926Z,100233.50
2022-10-20T14:24:56.458Z,100234.19
2022-10-20T14:27:30.248Z,100231.94
2022-10-20T14:29:58.859Z,100224.00
2022-10-20T14:32:29.378Z,100223.03
2022-10-20T14:35:01.487Z,100220.28
2022-10-20T14:37:36.717Z,100210.44
2022-10-20T14:40:19.054Z,100207.91
2022-10-20T14:42:46.674Z,100204.13
2022-10-20T14:45:23.626Z,100205.75
2022-10-20T14:47:51.914Z,100206.28
2022-10-20T14:50:40.980Z,100202.03
2022-10-20T14:53:22.805Z,100206.00
2022-10-20T14:55:49.807Z,100216.78
2022-10-20T14:58:53.646Z,100213.06
2022-10-20T15:01:32.077Z,100215.41
2022-10-20T15:04:31.032Z,100223.19
2022-10-20T15:07:13.459Z,100217.84
2022-10-20T15:09:43.151Z,100210.34
2022-10-20T15:12:34.072Z,100199.47
2022-10-20T15:15:13.321Z,100200.47
2022-10-20T15:17:47.047Z,100214.19
2022-10-20T15:20:32.554Z,100221.25
2022-10-20T15:23:03.932Z,100226.88
2022-10-20T15:26:01.099Z,100227.03
2022-10-20T15:28:48.810Z,100228.47
2022-10-20T15:31:23.302Z,100234.22
2022-10-20T15:33:51.778Z,100222.34
2022-10-20T15:36:33.252Z,100217.25
2022-10-20T15:39:00.798Z,100218.56
2022-10-20T15:41:33.549Z,100211.75
2022-10-20T15:44:22.246Z,100222.81
2022-10-20T15:46:53.542Z,100218.09
2022-10-20T15:49:21.376Z,100212.59
2022-10-20T15:51:50.551Z,100216.47
2022-10-20T15:54:21.144Z,100211.16
2022-10-20T15:56:48.236Z,100207.44
2022-10-20T15:59:15.116Z,100197.41
2022-10-20T16:01:42.360Z,100183.47
2022-10-20T16:04:23.180Z,100175.69
2022-10-20T16:06:57.609Z,100178.31
2022-10-20T16:09:26.151Z,100189.59
2022-10-20T16:11:53.185Z,100194.13
2022-10-20T16:14:20.194Z,100199.47
2022-10-20T16:16:47.049Z,100192.16
2022-10-20T16:19:13.986Z,100196.84
2022-10-20T16:21:41.512Z,100198.66
2022-10-20T16:24:08.584Z,100201.75
2022-10-20T16:26:35.614Z,100210.41
2022-10-20T16:29:02.590Z,100208.72
2022-10-20T16:31:29.489Z,100194.78
2022-10-20T16:34:00.166Z,100187.72
2022-10-20T16:36:27.207Z,100198.34
2022-10-20T16:38:57.510Z,100192.16
2022-10-20T16:41:24.526Z,100191.69
2022-10-20T16:43:51.913Z,100187.72
2022-10-20T16:46:18.928Z,100190.06
2022-10-20T16:48:47.917Z,100182.41
2022-10-20T16:51:16.587Z,100179.25
2022-10-20T16:53:44.032Z,100174.56
2022-10-20T16:56:15.304Z,100174.69
2022-10-20T16:58:45.297Z,100156.72
2022-10-20T17:01:14.157Z,100152.31
2022-10-20T17:03:47.365Z,100168.78
2022-10-20T17:06:17.415Z,100176.38
2022-10-20T17:08:44.773Z,100199.88
2022-10-20T17:11:21.127Z,100201.19
2022-10-20T17:13:48.091Z,100199.47
2022-10-20T17:16:26.278Z,100210.66
2022-10-20T17:18:57.316Z,100196.22
2022-10-20T17:21:24.935Z,100178.59
2022-10-20T17:23:52.048Z,100201.19
2022-10-20T17:26:21.810Z,100223.06
2022-10-20T17:28:49.217Z,100171.81
2022-10-20T17:31:17.653Z,100178.19
2022-10-20T17:33:45.688Z,100185.47
2022-10-20T17:36:13.426Z,100175.56
2022-10-20T17:38:43.010Z,100173.03
2022-10-20T17:41:14.080Z,100175.56
2022-10-20T17:43:42.108Z,100162.03
2022-10-20T17:46:14.097Z,100164.38
2022-10-20T17:48:41.614Z,100156.13
2022-10-20T17:51:16.137Z,100156.31
2022-10-20T17:53:45.919Z,100141.94
2022-10-20T17:56:19.556Z,100137.97
2022-10-20T17:58:48.595Z,100161.09
2022-10-20T18:01:34.276Z,100142.69
2022-10-20T18:04:16.766Z,100143.53
2022-10-20T18:06:44.638Z,100138.88
2022-10-20T18:09:14.851Z,100145.84
2022-10-20T18:11:48.935Z,100156.44
2022-10-20T18:14:17.003Z,100143.56
2022-10-20T18:16:44.364Z,100138.53
2022-10-20T18:19:17.446Z,100131.78
2022-10-20T18:21:45.078Z,100139.13
2022-10-20T18:24:14.598Z,100139.69
2022-10-20T18:26:41.959Z,100145.38
2022-10-20T18:29:10.290Z,100157.84
2022-10-20T18:31:43.522Z,100151.44
2022-10-20T18:34:17.963Z,100166.97
2022-10-20T18:36:45.973Z,100150.03
2022-10-20T18:39:15.930Z,100154.00
2022-10-20T18:41:44.013Z,100142.34
2022-10-20T18:44:17.344Z,100127.03
2022-10-20T18:46:46.869Z,100125.59
2022-10-20T18:49:16.535Z,100122.03
2022-10-20T18:51:46.904Z,100118.28
2022-10-20T18:54:15.048Z,100114.53
2022-10-20T18:56:42.977Z,100125.47
2022-10-20T18:59:14.114Z,100127.59
2022-10-20T19:01:41.623Z,100128.41
2022-10-20T19:04:10.761Z,100124.78
2022-10-20T19:06:47.583Z,100123.53
2022-10-20T19:09:18.959Z,100118.50
2022-10-20T19:11:47.500Z,100116.69
2022-10-20T19:14:15.447Z,100122.56
2022-10-20T19:16:46.124Z,100140.56
2022-10-20T19:19:13.121Z,100141.97
2022-10-20T19:21:40.131Z,100139.97
2022-10-20T19:24:23.434Z,100131.50
2022-10-20T19:27:21.073Z,100131.69
2022-10-20T19:29:42.943Z,100132.22
2022-10-20T19:32:11.377Z,100132.50
2022-10-20T19:34:40.905Z,100127.78
2022-10-20T19:37:08.638Z,100138.28
2022-10-20T19:39:40.405Z,100125.63
2022-10-20T19:42:09.679Z,100122.91
2022-10-20T19:44:37.656Z,100117.09
2022-10-20T19:47:05.143Z,100115.00
2022-10-20T19:49:32.623Z,100121.97
2022-10-20T19:51:59.744Z,100115.28
2022-10-20T19:54:27.094Z,100107.44
2022-10-20T19:56:54.069Z,100105.06
2022-10-20T19:59:21.231Z,100114.53
2022-10-20T20:01:49.958Z,100113.69
2022-10-20T20:04:16.927Z,100115.13
2022-10-20T20:06:43.851Z,100112.50
2022-10-20T20:09:12.204Z,100112.53
2022-10-20T20:11:39.983Z,100111.88
2022-10-20T20:14:19.073Z,100126.63
2022-10-20T20:16:47.468Z,100142.78
2022-10-20T20:19:16.782Z,100150.38
2022-10-20T20:21:43.807Z,100147.31
2022-10-20T20:24:13.426Z,100159.31
2022-10-20T20:26:40.752Z,100155.63
2022-10-20T20:29:07.658Z,100159.06
2022-10-20T20:31:34.731Z,100151.88
2022-10-20T20:34:02.680Z,100146.78
2022-10-20T20:36:29.734Z,100130.50
2022-10-20T20:38:59.353Z,100144.34
2022-10-20T20:41:31.065Z,100122.03
2022-10-20T20:43:58.454Z,100107.91
2022-10-20T20:46:29.291Z,100092.34
2022-10-20T20:48:57.382Z,100090.06
2022-10-20T20:51:25.292Z,100080.31
2022-10-20T20:53:52.150Z,100070.66
2022-10-20T20:56:21.851Z,100086.53
2022-10-20T20:58:54.984Z,100095.69
2022-10-20T21:01:29.165Z,100093.59
2022-10-20T21:04:00.790Z,100081.44
2022-10-20T21:06:33.724Z,100085.16
2022-10-20T21:09:07.360Z,100061.84
2022-10-20T21:11:34.639Z,100064.38
2022-10-20T21:14:02.046Z,100068.69
2022-10-20T21:16:34.603Z,100069.31
2022-10-20T21:19:09.580Z,100073.13
2022-10-20T21:21:50.720Z,100070.59
2022-10-20T21:24:18.503Z,100087.69
2022-10-20T21:26:45.501Z,100081.28
2022-10-20T21:29:12.363Z,100074.66
2022-10-20T21:31:40.010Z,100087.13
2022-10-20T21:34:07.253Z,100088.84
2022-10-20T21:36:36.346Z,100097.81
2022-10-20T21:39:07.016Z,100095.47
2022-10-20T21:41:35.751Z,100090.38
2022-10-20T21:44:04.726Z,100083.31
2022-10-20T21:46:47.216Z,100046.75
2022-10-20T21:49:20.252Z,100031.78
2022-10-20T21:51:52.437Z,100051.69
2022-10-20T21:54:26.579Z,100051.88
2022-10-20T21:56:54.672Z,100040.69
2022-10-20T21:59:31.338Z,100025.56
2022-10-20T22:02:01.294Z,100019.34
2022-10-20T22:04:29.879Z,100027.47
2022-10-20T22:06:59.335Z,100020.22
2022-10-20T22:09:26.546Z,100019.78
2022-10-20T22:11:56.661Z,100018.53
2022-10-20T22:14:23.923Z,99997.69
2022-10-20T22:16:55.596Z,100001.75
2022-10-20T22:19:24.775Z,99988.16
2022-10-20T22:21:53.060Z,99969.22
2022-10-20T22:24:21.519Z,99962.56
2022-10-20T22:26:51.568Z,99968.34
2022-10-20T22:29:23.167Z,99983.31
2022-10-20T22:31:50.511Z,99981.00
2022-10-20T22:34:17.531Z,99983.31
2022-10-20T22:36:44.493Z,99983.47
2022-10-20T22:41:39.979Z,99992.59
2022-10-20T22:44:07.552Z,100006.81
2022-10-20T22:46:34.713Z,100007.44
2022-10-20T22:49:01.861Z,100050.69
2022-10-20T22:51:28.894Z,100056.09
2022-10-20T22:53:56.847Z,100044.88
2022-10-20T22:56:24.026Z,100074.28
2022-10-20T22:58:53.379Z,100105.34
2022-10-20T23:01:23.603Z,100078.28
2022-10-20T23:03:51.347Z,100127.28
2022-10-20T23:06:25.303Z,100087.84
2022-10-20T23:08:56.113Z,100082.25
2022-10-20T23:11:23.791Z,100081.88
2022-10-20T23:13:51.494Z,100081.94
2022-10-20T23:16:18.586Z,100110.16
2022-10-20T23:18:45.644Z,100100.78
2022-10-20T23:21:14.332Z,100088.84
2022-10-20T23:23:41.823Z,100095.63
2022-10-20T23:26:09.689Z,100098.66
2022-10-20T23:28:37.954Z,100095.78
2022-10-20T23:31:18.019Z,100085.00
2022-10-20T23:33:47.001Z,100060.31
2022-10-20T23:36:16.531Z,100044.63
2022-10-20T23:38:44.019Z,100040.22
2022-10-20T23:41:10.977Z,100046.28
2022-10-20T23:43:37.917Z,100059.88
2022-10-20T23:46:05.545Z,100062.66
2022-10-20T23:48:32.651Z,100050.34
2022-10-20T23:50:59.523Z,100045.78
2022-10-20T23:53:26.564Z,100032.06
2022-10-20T23:55:53.676Z,100040.28
2022-10-20T23:58:22.456Z,100023.00
